Portada
METAR-TAF:

METAR-TAF

Aeroports :

Aktau, Kazakhstan

latitud: 43-52-12N, longitud: 051-06E, altitud: 22 m

Observació

L'informe es va fer fa 26 minuts, a les 16:00 UTC
Vent calma
Temperatura 4°C
Humitat 87%
Pressió 1016 hPa
Visibilitat 10 km o més
Cel cobert a una alçada de 3000 ft

METAR: UATE 091600Z 00000MPS 9999 OVC030 04/02 Q1016 R30/1///65 NOSIG RMK QFE761/1014

Hora: 21:26 (16:26 UTC)

Pronòstic

L'informe es va fer fa 5 hores i 24 minuts, a les 11:02 UTC
Pronòstic vàlid del 09 a les 12 UTC al 10 a les 12 UTC
Vent 4 kt amb direcció variable
Visibilitat 10 km o més
Cel ennuvolat a una alçada de 2000 ft
Escasses núvols a una alçada de 3300 ft, Cumulonimbus.
Temporalment
l' 09 a les 14 UTC al 10 a les 04 UTC
Visibilitat: 1000 m
Cel ennuvolat a una alçada de 300 ft
boirina

TAF: UATE 091102Z 0912/1012 VRB02MPS 9999 BKN020 FEW033CB TX05/1009Z TNM02/1003Z TEMPO 0914/1004 1000 BR BKN003

Observacions i pronòstics meteorològics de més de 4000 aeroports (METAR i TAF).

Les estacions disponibles són els punts grocs i vermells al mapa.

Posi el ratolí al punt desitjat per veure el nom de l'estació.

Feu clic per veure les observacions i els pronòstics meteorològics.

Per canviar el mapa: feu clic els botons verds amb una creu de color negre per apropar; al botó verd amb un guió per allunyar la imatge; o en les fletxes verdes per a mapes adjacents.


METAR-TAF: